Terminal Aerodrome Forecast
Issued by NWS

Home | Current Version | Previous Version | Text Only | Print | Product List | Glossary On
Versions: 1 2 3 4 5 6 7 8 9 10 11 12 13 14 15 16 17 18 19 20 21 22 23 24 25 26 27 28 29 30 31 32 33 34 35 36 37
000
FTUS45 KREV 180500
TAFTVL
TAF
KTVL 180537Z 1806/1906 VRB03KT P6SM VCSH BKN040 OVC070
     FM180800 VRB03KT 3SM -SHSN SCT012 BKN020
     FM181200 VRB03KT P6SM SCT020 BKN030
     FM181700 18004KT P6SM SCT040 BKN100=

USA.gov is the U.S. government's official web portal to all federal, state and local government web resources and services.